GIA777 WIMM-OEMA
Flight info
| Callsign | GIA777 |
|---|---|
| Flight time | 7h 48m |
| Altitude | 34000 |
| Route | MAIMU DCT MEMAK N563 REXOD L883 UMILA N569 TOKRA DCT ITRUX Y511 ELONU |
| Aircraft | B77W/H-SDE1E2E3FGHIJ2J3J4J5M1RWXY/LB1D1 |
Departure
| Time | 2026-04-24 12:09 |
|---|---|
| Airport | Kualanamu International Airport (WIMM) |
Arrival
| Time | 2026-04-24 19:57 |
|---|---|
| Airport | Prince Mohammad Bin Abdulaziz Airport (OEMA) |
| Time | Latitude | Longitude | Altitude | Speed | Heading |
|---|---|---|---|---|---|
| 2026-04-24 11:40 | 3.63818 | 98.87915 | 18 ft | 0 kts | 225° |
| 2026-04-24 11:53 | 3.63818 | 98.87916 | 45 ft | 1 kts | 225° |
| 2026-04-24 11:54 | 3.63829 | 98.87927 | 44 ft | 3 kts | 225° |
| 2026-04-24 11:54 | 3.63843 | 98.87941 | 42 ft | 3 kts | 225° |
| 2026-04-24 11:54 | 3.63855 | 98.87954 | 43 ft | 2 kts | 226° |
| 2026-04-24 11:54 | 3.63865 | 98.87967 | 42 ft | 3 kts | 268° |
| 2026-04-24 11:55 | 3.63861 | 98.87984 | 40 ft | 3 kts | 309° |
| 2026-04-24 11:55 | 3.63847 | 98.87999 | 41 ft | 3 kts | 317° |
| 2026-04-24 11:55 | 3.63833 | 98.88011 | 41 ft | 2 kts | 315° |
| 2026-04-24 11:55 | 3.63830 | 98.88014 | 41 ft | 0 kts | 314° |
| 2026-04-24 11:58 | 3.63831 | 98.88013 | 45 ft | 1 kts | 314° |
| 2026-04-24 11:59 | 3.63858 | 98.87986 | 45 ft | 8 kts | 314° |
| 2026-04-24 11:59 | 3.63907 | 98.87969 | 45 ft | 8 kts | 8° |
| 2026-04-24 11:59 | 3.63954 | 98.87995 | 45 ft | 8 kts | 38° |
| 2026-04-24 11:59 | 3.63996 | 98.88031 | 45 ft | 8 kts | 43° |
| 2026-04-24 12:00 | 3.64034 | 98.88070 | 43 ft | 9 kts | 47° |
| 2026-04-24 12:00 | 3.64083 | 98.88121 | 45 ft | 8 kts | 41° |
| 2026-04-24 12:00 | 3.64144 | 98.88123 | 45 ft | 11 kts | 333° |
| 2026-04-24 12:00 | 3.64211 | 98.88069 | 45 ft | 13 kts | 316° |
| 2026-04-24 12:01 | 3.64274 | 98.88006 | 45 ft | 13 kts | 314° |
| 2026-04-24 12:01 | 3.64274 | 98.87929 | 44 ft | 13 kts | 232° |
| 2026-04-24 12:01 | 3.64204 | 98.87854 | 44 ft | 19 kts | 225° |
| 2026-04-24 12:01 | 3.64106 | 98.87756 | 44 ft | 20 kts | 224° |
| 2026-04-24 12:02 | 3.64009 | 98.87661 | 44 ft | 19 kts | 224° |
| 2026-04-24 12:02 | 3.63914 | 98.87568 | 44 ft | 19 kts | 225° |
| 2026-04-24 12:02 | 3.63822 | 98.87475 | 44 ft | 18 kts | 225° |
| 2026-04-24 12:02 | 3.63781 | 98.87434 | 44 ft | 1 kts | 224° |
| 2026-04-24 12:03 | 3.63761 | 98.87414 | 45 ft | 10 kts | 224° |
| 2026-04-24 12:03 | 3.63713 | 98.87366 | 45 ft | 10 kts | 225° |
| 2026-04-24 12:03 | 3.63656 | 98.87309 | 45 ft | 13 kts | 225° |
| 2026-04-24 12:03 | 3.63619 | 98.87232 | 44 ft | 13 kts | 288° |
| 2026-04-24 12:04 | 3.63612 | 98.87146 | 44 ft | 13 kts | 234° |
| 2026-04-24 12:04 | 3.63549 | 98.87076 | 44 ft | 14 kts | 225° |
| 2026-04-24 12:04 | 3.63465 | 98.86993 | 44 ft | 18 kts | 224° |
| 2026-04-24 12:04 | 3.63377 | 98.86907 | 44 ft | 18 kts | 225° |
| 2026-04-24 12:05 | 3.63281 | 98.86811 | 44 ft | 21 kts | 225° |
| 2026-04-24 12:05 | 3.63181 | 98.86711 | 43 ft | 20 kts | 225° |
| 2026-04-24 12:05 | 3.63086 | 98.86617 | 44 ft | 19 kts | 224° |
| 2026-04-24 12:05 | 3.62990 | 98.86524 | 44 ft | 22 kts | 224° |
| 2026-04-24 12:06 | 3.62880 | 98.86412 | 44 ft | 25 kts | 226° |
| 2026-04-24 12:06 | 3.62761 | 98.86293 | 44 ft | 23 kts | 225° |
| 2026-04-24 12:06 | 3.62648 | 98.86182 | 44 ft | 20 kts | 224° |
| 2026-04-24 12:06 | 3.62570 | 98.86104 | 44 ft | 15 kts | 224° |
| 2026-04-24 12:07 | 3.62512 | 98.86040 | 44 ft | 11 kts | 240° |
| 2026-04-24 12:07 | 3.62513 | 98.85965 | 42 ft | 11 kts | 294° |
| 2026-04-24 12:07 | 3.62581 | 98.85901 | 41 ft | 15 kts | 346° |
| 2026-04-24 12:07 | 3.62677 | 98.85954 | 42 ft | 22 kts | 44° |
| 2026-04-24 12:08 | 3.62844 | 98.86120 | 42 ft | 48 kts | 45° |
| 2026-04-24 12:08 | 3.63161 | 98.86433 | 41 ft | 93 kts | 45° |
| 2026-04-24 12:08 | 3.63816 | 98.87091 | 42 ft | 172 kts | 45° |
| 2026-04-24 12:08 | 3.64734 | 98.88032 | 580 ft | 190 kts | 47° |
| 2026-04-24 12:09 | 3.65728 | 98.88890 | 1329 ft | 196 kts | 26° |
| 2026-04-24 12:09 | 3.67099 | 98.88986 | 1650 ft | 208 kts | 341° |
| 2026-04-24 12:09 | 3.68322 | 98.88127 | 1839 ft | 226 kts | 311° |
| 2026-04-24 12:09 | 3.69367 | 98.86852 | 2010 ft | 249 kts | 309° |
| 2026-04-24 12:10 | 3.70485 | 98.85462 | 2357 ft | 264 kts | 309° |
| 2026-04-24 12:10 | 3.71639 | 98.84019 | 2915 ft | 271 kts | 309° |
| 2026-04-24 12:10 | 3.72835 | 98.82523 | 3516 ft | 278 kts | 309° |
| 2026-04-24 12:11 | 3.75242 | 98.79522 | 5049 ft | 277 kts | 309° |
| 2026-04-24 12:11 | 3.76225 | 98.77852 | 5523 ft | 284 kts | 291° |
| 2026-04-24 12:11 | 3.76830 | 98.75960 | 6187 ft | 285 kts | 285° |
| 2026-04-24 12:11 | 3.77333 | 98.74041 | 6874 ft | 287 kts | 285° |
| 2026-04-24 12:12 | 3.77835 | 98.72081 | 7390 ft | 293 kts | 285° |
| 2026-04-24 12:12 | 3.78351 | 98.70113 | 8124 ft | 291 kts | 285° |
| 2026-04-24 12:12 | 3.78878 | 98.68146 | 8686 ft | 297 kts | 285° |
| 2026-04-24 12:12 | 3.79429 | 98.66137 | 9270 ft | 301 kts | 286° |
| 2026-04-24 12:13 | 3.79997 | 98.64101 | 9797 ft | 306 kts | 286° |
| 2026-04-24 12:13 | 3.80581 | 98.62036 | 10341 ft | 310 kts | 286° |
| 2026-04-24 12:13 | 3.81174 | 98.59959 | 11014 ft | 309 kts | 286° |
| 2026-04-24 12:13 | 3.81576 | 98.58557 | 11473 ft | 311 kts | 286° |
| 2026-04-24 12:14 | 3.82377 | 98.55774 | 12333 ft | 317 kts | 286° |
| 2026-04-24 12:14 | 3.82792 | 98.54335 | 12770 ft | 320 kts | 286° |
| 2026-04-24 12:14 | 3.83412 | 98.52193 | 13237 ft | 333 kts | 286° |
| 2026-04-24 12:14 | 3.84079 | 98.49889 | 13395 ft | 356 kts | 286° |
| 2026-04-24 12:15 | 3.84789 | 98.47438 | 13572 ft | 377 kts | 286° |
| 2026-04-24 12:15 | 3.85541 | 98.44844 | 13727 ft | 398 kts | 286° |
| 2026-04-24 12:15 | 3.86325 | 98.42140 | 14101 ft | 410 kts | 286° |
| 2026-04-24 12:15 | 3.87128 | 98.39372 | 14565 ft | 418 kts | 286° |
| 2026-04-24 12:16 | 3.87953 | 98.36527 | 15167 ft | 422 kts | 286° |
| 2026-04-24 12:16 | 3.88764 | 98.33732 | 15822 ft | 425 kts | 286° |
| 2026-04-24 12:16 | 3.89590 | 98.30882 | 16442 ft | 428 kts | 285° |
| 2026-04-24 12:16 | 3.90424 | 98.28005 | 17024 ft | 433 kts | 285° |
| 2026-04-24 12:17 | 3.91268 | 98.25094 | 17566 ft | 438 kts | 285° |
| 2026-04-24 12:17 | 3.92122 | 98.22147 | 18106 ft | 442 kts | 285° |
| 2026-04-24 12:17 | 3.92982 | 98.19181 | 18613 ft | 446 kts | 285° |
| 2026-04-24 12:17 | 3.93849 | 98.16188 | 19131 ft | 448 kts | 285° |
| 2026-04-24 12:18 | 3.94719 | 98.13184 | 19669 ft | 450 kts | 285° |
| 2026-04-24 12:18 | 3.95594 | 98.10165 | 20175 ft | 453 kts | 285° |
| 2026-04-24 12:18 | 3.96474 | 98.07128 | 20680 ft | 456 kts | 285° |
| 2026-04-24 12:18 | 3.97359 | 98.04071 | 21191 ft | 459 kts | 285° |
| 2026-04-24 12:19 | 3.98250 | 98.00994 | 21678 ft | 461 kts | 285° |
| 2026-04-24 12:19 | 3.99125 | 97.97969 | 22138 ft | 464 kts | 285° |
| 2026-04-24 12:19 | 4.00023 | 97.94867 | 22611 ft | 467 kts | 285° |
| 2026-04-24 12:19 | 4.00931 | 97.91731 | 23071 ft | 470 kts | 285° |
| 2026-04-24 12:20 | 4.01844 | 97.88576 | 23540 ft | 473 kts | 285° |
| 2026-04-24 12:20 | 4.02762 | 97.85402 | 23896 ft | 475 kts | 285° |
| 2026-04-24 12:20 | 4.03684 | 97.82216 | 24273 ft | 477 kts | 285° |
| 2026-04-24 12:20 | 4.04609 | 97.79016 | 24683 ft | 479 kts | 285° |
| 2026-04-24 12:21 | 4.05537 | 97.75808 | 25049 ft | 481 kts | 285° |
| 2026-04-24 12:21 | 4.06470 | 97.72581 | 25426 ft | 484 kts | 285° |
| 2026-04-24 12:21 | 4.07407 | 97.69338 | 25772 ft | 486 kts | 285° |
| 2026-04-24 12:21 | 4.08349 | 97.66079 | 26106 ft | 488 kts | 285° |
| 2026-04-24 12:22 | 4.09295 | 97.62805 | 26451 ft | 490 kts | 285° |
| 2026-04-24 12:22 | 4.10246 | 97.59515 | 26793 ft | 492 kts | 285° |
| 2026-04-24 12:22 | 4.11201 | 97.56213 | 27152 ft | 495 kts | 285° |
| 2026-04-24 12:22 | 4.12160 | 97.52896 | 27485 ft | 497 kts | 285° |
| 2026-04-24 12:23 | 4.13120 | 97.49567 | 27810 ft | 499 kts | 285° |
| 2026-04-24 12:23 | 4.14086 | 97.46226 | 28109 ft | 501 kts | 285° |
| 2026-04-24 12:23 | 4.15056 | 97.42866 | 28423 ft | 503 kts | 285° |
| 2026-04-24 12:23 | 4.16028 | 97.39497 | 28705 ft | 505 kts | 285° |
| 2026-04-24 12:24 | 4.17005 | 97.36111 | 28985 ft | 507 kts | 285° |
| 2026-04-24 12:24 | 4.17984 | 97.32716 | 29250 ft | 509 kts | 285° |
| 2026-04-24 12:24 | 4.18968 | 97.29306 | 29594 ft | 509 kts | 285° |
| 2026-04-24 12:24 | 4.19948 | 97.25910 | 29992 ft | 507 kts | 285° |
| 2026-04-24 12:25 | 4.20926 | 97.22520 | 30352 ft | 506 kts | 285° |
| 2026-04-24 12:25 | 4.21900 | 97.19142 | 30702 ft | 504 kts | 285° |
| 2026-04-24 12:25 | 4.22873 | 97.15769 | 31028 ft | 504 kts | 285° |
| 2026-04-24 12:25 | 4.23845 | 97.12395 | 31337 ft | 503 kts | 285° |
| 2026-04-24 12:26 | 4.24816 | 97.09028 | 31663 ft | 503 kts | 285° |
| 2026-04-24 12:26 | 4.25784 | 97.05666 | 31984 ft | 502 kts | 285° |
| 2026-04-24 12:26 | 4.26752 | 97.02309 | 32284 ft | 502 kts | 285° |
| 2026-04-24 12:26 | 4.27700 | 96.99016 | 32597 ft | 501 kts | 285° |
| 2026-04-24 12:27 | 4.28663 | 96.95670 | 32920 ft | 500 kts | 285° |
| 2026-04-24 12:27 | 4.29614 | 96.92367 | 33235 ft | 500 kts | 285° |
| 2026-04-24 12:27 | 4.30576 | 96.89026 | 33564 ft | 499 kts | 285° |
| 2026-04-24 12:27 | 4.31537 | 96.85689 | 33851 ft | 499 kts | 285° |
| 2026-04-24 12:28 | 4.32501 | 96.82336 | 33888 ft | 503 kts | 285° |
| 2026-04-24 12:28 | 4.34439 | 96.75603 | 33924 ft | 502 kts | 286° |
| 2026-04-24 12:29 | 4.36891 | 96.69113 | 33919 ft | 497 kts | 294° |
| 2026-04-24 12:29 | 4.39800 | 96.62835 | 33935 ft | 496 kts | 295° |
| 2026-04-24 12:30 | 4.42711 | 96.56567 | 33936 ft | 496 kts | 294° |
| 2026-04-24 12:30 | 4.45597 | 96.50271 | 33922 ft | 501 kts | 294° |
| 2026-04-24 12:31 | 4.48508 | 96.43876 | 33925 ft | 508 kts | 294° |
| 2026-04-24 12:31 | 4.51447 | 96.37406 | 33898 ft | 513 kts | 294° |
| 2026-04-24 12:32 | 4.54416 | 96.30876 | 33894 ft | 517 kts | 294° |
| 2026-04-24 12:32 | 4.57409 | 96.24292 | 33906 ft | 521 kts | 294° |
| 2026-04-24 12:33 | 4.60421 | 96.17670 | 33885 ft | 524 kts | 294° |
| 2026-04-24 12:33 | 4.63428 | 96.11054 | 33885 ft | 526 kts | 294° |
| 2026-04-24 12:34 | 4.66460 | 96.04379 | 33881 ft | 526 kts | 294° |
| 2026-04-24 12:34 | 4.69459 | 95.97779 | 33867 ft | 525 kts | 294° |
| 2026-04-24 12:35 | 4.72473 | 95.91141 | 33859 ft | 522 kts | 294° |
| 2026-04-24 12:35 | 4.75476 | 95.84525 | 33860 ft | 520 kts | 294° |
| 2026-04-24 12:36 | 4.78466 | 95.77936 | 33844 ft | 519 kts | 294° |
| 2026-04-24 12:36 | 4.81452 | 95.71355 | 33847 ft | 518 kts | 294° |
| 2026-04-24 12:37 | 4.84434 | 95.64780 | 33847 ft | 518 kts | 294° |
| 2026-04-24 12:37 | 4.87419 | 95.58195 | 33847 ft | 519 kts | 294° |
| 2026-04-24 12:38 | 4.90409 | 95.51599 | 33847 ft | 520 kts | 294° |
| 2026-04-24 12:38 | 4.93401 | 95.44997 | 33842 ft | 520 kts | 294° |
| 2026-04-24 12:39 | 4.99391 | 95.31770 | 33843 ft | 521 kts | 294° |
| 2026-04-24 12:40 | 5.02383 | 95.25161 | 33839 ft | 521 kts | 294° |
| 2026-04-24 12:40 | 5.05380 | 95.18539 | 33838 ft | 521 kts | 294° |
| 2026-04-24 12:41 | 5.08376 | 95.11916 | 33841 ft | 521 kts | 294° |
| 2026-04-24 12:41 | 5.11374 | 95.05289 | 33841 ft | 521 kts | 294° |
| 2026-04-24 12:42 | 5.14336 | 94.98737 | 33847 ft | 521 kts | 294° |
| 2026-04-24 12:42 | 5.17329 | 94.92114 | 33842 ft | 522 kts | 294° |
| 2026-04-24 12:43 | 5.20326 | 94.85481 | 33846 ft | 522 kts | 294° |
| 2026-04-24 12:43 | 5.23325 | 94.78844 | 33848 ft | 523 kts | 294° |
| 2026-04-24 12:44 | 5.26327 | 94.72194 | 33850 ft | 523 kts | 294° |
| 2026-04-24 12:44 | 5.29311 | 94.65584 | 33850 ft | 524 kts | 294° |
| 2026-04-24 12:45 | 5.32317 | 94.58921 | 33850 ft | 524 kts | 294° |
| 2026-04-24 12:45 | 5.35324 | 94.52255 | 33845 ft | 524 kts | 294° |
| 2026-04-24 12:46 | 5.38332 | 94.45585 | 33848 ft | 525 kts | 294° |
| 2026-04-24 12:46 | 5.41341 | 94.38910 | 33848 ft | 525 kts | 294° |
| 2026-04-24 12:47 | 5.44349 | 94.32236 | 33849 ft | 525 kts | 294° |
| 2026-04-24 12:47 | 5.47357 | 94.25557 | 33845 ft | 525 kts | 294° |
| 2026-04-24 12:48 | 5.50365 | 94.18879 | 33847 ft | 525 kts | 294° |
| 2026-04-24 12:48 | 5.53372 | 94.12198 | 33846 ft | 525 kts | 294° |
| 2026-04-24 12:49 | 5.56380 | 94.05514 | 33849 ft | 525 kts | 294° |
| 2026-04-24 12:49 | 5.59357 | 93.98897 | 33846 ft | 526 kts | 294° |
| 2026-04-24 12:50 | 5.62365 | 93.92207 | 33851 ft | 526 kts | 294° |
| 2026-04-24 12:50 | 5.65354 | 93.85558 | 33850 ft | 526 kts | 294° |
| 2026-04-24 12:51 | 5.68362 | 93.78863 | 33846 ft | 526 kts | 294° |
| 2026-04-24 12:51 | 5.71370 | 93.72168 | 33847 ft | 526 kts | 295° |
| 2026-04-24 12:52 | 5.74379 | 93.65466 | 33850 ft | 526 kts | 294° |
| 2026-04-24 12:52 | 5.77387 | 93.58764 | 33849 ft | 526 kts | 294° |
| 2026-04-24 12:53 | 5.80394 | 93.52062 | 33849 ft | 527 kts | 294° |
| 2026-04-24 12:53 | 5.83403 | 93.45354 | 33849 ft | 527 kts | 294° |
| 2026-04-24 12:54 | 5.86407 | 93.38655 | 33850 ft | 527 kts | 294° |
| 2026-04-24 12:54 | 5.89414 | 93.31945 | 33849 ft | 527 kts | 294° |
| 2026-04-24 12:55 | 5.92421 | 93.25232 | 33852 ft | 527 kts | 294° |
| 2026-04-24 12:55 | 5.95427 | 93.18520 | 33852 ft | 527 kts | 294° |
| 2026-04-24 12:56 | 5.98433 | 93.11805 | 33852 ft | 527 kts | 294° |
| 2026-04-24 12:56 | 6.01440 | 93.05109 | 33854 ft | 527 kts | 295° |
| 2026-04-24 12:57 | 6.04455 | 92.98500 | 33849 ft | 527 kts | 295° |
| 2026-04-24 12:57 | 6.07498 | 92.91854 | 33853 ft | 527 kts | 295° |
| 2026-04-24 12:58 | 6.10552 | 92.85163 | 33854 ft | 527 kts | 295° |
| 2026-04-24 12:58 | 6.13601 | 92.78471 | 33856 ft | 527 kts | 295° |
| 2026-04-24 12:59 | 6.16648 | 92.71774 | 33856 ft | 527 kts | 295° |
| 2026-04-24 12:59 | 6.19696 | 92.65077 | 33857 ft | 527 kts | 295° |
| 2026-04-24 13:00 | 6.22744 | 92.58375 | 33854 ft | 527 kts | 295° |
| 2026-04-24 13:00 | 6.25279 | 92.52802 | 33859 ft | 527 kts | 295° |
| 2026-04-24 13:01 | 6.28329 | 92.46092 | 33859 ft | 528 kts | 295° |
| 2026-04-24 13:01 | 6.31377 | 92.39384 | 33859 ft | 528 kts | 295° |
| 2026-04-24 13:02 | 6.34427 | 92.32669 | 33856 ft | 528 kts | 295° |
| 2026-04-24 13:02 | 6.37476 | 92.25954 | 33856 ft | 528 kts | 295° |
| 2026-04-24 13:03 | 6.40525 | 92.19237 | 33858 ft | 528 kts | 295° |
| 2026-04-24 13:03 | 6.43572 | 92.12520 | 33857 ft | 528 kts | 295° |
| 2026-04-24 13:04 | 6.46620 | 92.05798 | 33855 ft | 528 kts | 295° |
| 2026-04-24 13:04 | 6.49634 | 91.99150 | 33855 ft | 528 kts | 295° |
| 2026-04-24 13:05 | 6.52680 | 91.92427 | 33858 ft | 528 kts | 295° |
| 2026-04-24 13:05 | 6.55726 | 91.85702 | 33860 ft | 528 kts | 295° |
| 2026-04-24 13:06 | 6.58772 | 91.78974 | 33854 ft | 528 kts | 295° |
| 2026-04-24 13:06 | 6.61816 | 91.72247 | 33856 ft | 528 kts | 295° |
| 2026-04-24 13:07 | 6.64859 | 91.65520 | 33860 ft | 528 kts | 295° |
| 2026-04-24 13:07 | 6.67901 | 91.58793 | 33857 ft | 528 kts | 295° |
| 2026-04-24 13:08 | 6.70943 | 91.52064 | 33861 ft | 528 kts | 295° |
| 2026-04-24 13:08 | 6.73980 | 91.45341 | 33858 ft | 528 kts | 295° |
| 2026-04-24 13:09 | 6.78539 | 91.35244 | 33861 ft | 528 kts | 295° |
| 2026-04-24 13:09 | 6.81578 | 91.28510 | 33861 ft | 528 kts | 295° |
| 2026-04-24 13:10 | 6.84599 | 91.21815 | 33857 ft | 528 kts | 295° |
| 2026-04-24 13:10 | 6.87634 | 91.15083 | 33859 ft | 528 kts | 295° |
| 2026-04-24 13:11 | 6.90668 | 91.08352 | 33859 ft | 528 kts | 295° |
| 2026-04-24 13:11 | 6.93703 | 91.01615 | 33861 ft | 529 kts | 295° |
| 2026-04-24 13:12 | 6.96703 | 90.94953 | 33858 ft | 529 kts | 295° |
| 2026-04-24 13:12 | 6.99739 | 90.88207 | 33860 ft | 529 kts | 295° |
| 2026-04-24 13:13 | 7.02773 | 90.81463 | 33857 ft | 529 kts | 295° |
| 2026-04-24 13:13 | 7.05808 | 90.74715 | 33863 ft | 529 kts | 295° |
| 2026-04-24 13:14 | 7.08845 | 90.67959 | 33860 ft | 530 kts | 295° |
| 2026-04-24 13:14 | 7.11881 | 90.61202 | 33860 ft | 530 kts | 295° |
| 2026-04-24 13:15 | 7.14917 | 90.54442 | 33863 ft | 530 kts | 295° |
| 2026-04-24 13:15 | 7.17950 | 90.47684 | 33863 ft | 530 kts | 295° |
| 2026-04-24 13:16 | 7.20986 | 90.40919 | 33863 ft | 530 kts | 295° |
| 2026-04-24 13:16 | 7.24018 | 90.34159 | 33865 ft | 530 kts | 295° |
| 2026-04-24 13:17 | 7.27051 | 90.27393 | 33862 ft | 529 kts | 295° |
| 2026-04-24 13:17 | 7.30079 | 90.20635 | 33863 ft | 529 kts | 295° |
| 2026-04-24 13:18 | 7.33103 | 90.13881 | 33862 ft | 529 kts | 295° |
| 2026-04-24 13:18 | 7.36110 | 90.07165 | 33863 ft | 529 kts | 295° |
| 2026-04-24 13:19 | 7.39131 | 90.00412 | 33863 ft | 529 kts | 295° |
| 2026-04-24 13:19 | 7.42122 | 89.93726 | 33865 ft | 528 kts | 294° |
| 2026-04-24 13:20 | 7.45139 | 89.86974 | 33866 ft | 528 kts | 294° |
| 2026-04-24 13:20 | 7.48151 | 89.80234 | 33865 ft | 527 kts | 294° |
| 2026-04-24 13:21 | 7.51159 | 89.73498 | 33864 ft | 527 kts | 294° |
| 2026-04-24 13:21 | 7.54166 | 89.66762 | 33865 ft | 527 kts | 294° |
| 2026-04-24 13:22 | 7.57172 | 89.60024 | 33866 ft | 527 kts | 294° |
| 2026-04-24 13:22 | 7.60176 | 89.53286 | 33869 ft | 527 kts | 294° |
| 2026-04-24 13:23 | 7.63179 | 89.46549 | 33867 ft | 527 kts | 294° |
| 2026-04-24 13:23 | 7.66179 | 89.39812 | 33863 ft | 527 kts | 294° |
| 2026-04-24 13:24 | 7.69181 | 89.33072 | 33866 ft | 526 kts | 294° |
| 2026-04-24 13:24 | 7.72217 | 89.26360 | 33869 ft | 526 kts | 295° |
| 2026-04-24 13:25 | 7.75295 | 89.19657 | 33869 ft | 526 kts | 295° |
| 2026-04-24 13:25 | 7.78365 | 89.12963 | 33865 ft | 526 kts | 295° |
| 2026-04-24 13:26 | 7.81425 | 89.06266 | 33868 ft | 526 kts | 295° |
| 2026-04-24 13:26 | 7.84446 | 88.99641 | 33867 ft | 525 kts | 295° |
| 2026-04-24 13:27 | 7.87476 | 88.92994 | 33872 ft | 525 kts | 295° |
| 2026-04-24 13:27 | 7.90527 | 88.86298 | 33866 ft | 525 kts | 295° |
| 2026-04-24 13:28 | 7.93571 | 88.79615 | 33875 ft | 523 kts | 294° |
| 2026-04-24 13:28 | 7.96605 | 88.72952 | 33862 ft | 521 kts | 294° |
| 2026-04-24 13:29 | 7.99624 | 88.66318 | 33869 ft | 520 kts | 294° |
| 2026-04-24 13:29 | 8.02636 | 88.59694 | 33869 ft | 519 kts | 294° |
| 2026-04-24 13:30 | 8.05643 | 88.53079 | 33868 ft | 519 kts | 294° |
| 2026-04-24 13:30 | 8.08651 | 88.46458 | 33872 ft | 519 kts | 294° |
| 2026-04-24 13:31 | 8.11658 | 88.39839 | 33871 ft | 519 kts | 294° |
| 2026-04-24 13:31 | 8.14661 | 88.33222 | 33865 ft | 518 kts | 294° |
| 2026-04-24 13:32 | 8.17659 | 88.26612 | 33867 ft | 518 kts | 294° |
| 2026-04-24 13:32 | 8.20659 | 88.19995 | 33873 ft | 518 kts | 294° |
| 2026-04-24 13:33 | 8.23657 | 88.13381 | 33865 ft | 518 kts | 294° |
| 2026-04-24 13:33 | 8.26653 | 88.06766 | 33865 ft | 518 kts | 294° |
| 2026-04-24 13:34 | 8.29649 | 88.00148 | 33870 ft | 519 kts | 294° |
| 2026-04-24 13:34 | 8.32618 | 87.93588 | 33871 ft | 519 kts | 294° |
| 2026-04-24 13:35 | 8.35617 | 87.86956 | 33875 ft | 519 kts | 294° |
| 2026-04-24 13:35 | 8.38614 | 87.80326 | 33870 ft | 519 kts | 294° |
| 2026-04-24 13:36 | 8.41609 | 87.73696 | 33872 ft | 519 kts | 294° |
| 2026-04-24 13:36 | 8.44583 | 87.67111 | 33871 ft | 519 kts | 294° |
| 2026-04-24 13:37 | 8.47575 | 87.60481 | 33872 ft | 518 kts | 294° |
| 2026-04-24 13:37 | 8.50563 | 87.53857 | 33869 ft | 518 kts | 294° |
| 2026-04-24 13:38 | 8.53548 | 87.47235 | 33869 ft | 518 kts | 294° |
| 2026-04-24 13:38 | 8.56534 | 87.40609 | 33871 ft | 518 kts | 294° |
| 2026-04-24 13:39 | 8.59519 | 87.33982 | 33874 ft | 518 kts | 294° |
| 2026-04-24 13:39 | 8.62503 | 87.27353 | 33874 ft | 518 kts | 294° |
| 2026-04-24 13:40 | 8.65487 | 87.20720 | 33871 ft | 519 kts | 294° |
| 2026-04-24 13:40 | 8.68469 | 87.14087 | 33874 ft | 519 kts | 294° |
| 2026-04-24 13:41 | 8.71453 | 87.07448 | 33868 ft | 519 kts | 294° |
| 2026-04-24 13:41 | 8.74436 | 87.00806 | 33874 ft | 519 kts | 294° |
| 2026-04-24 13:42 | 8.77381 | 86.94244 | 33878 ft | 519 kts | 294° |
| 2026-04-24 13:42 | 8.80361 | 86.87603 | 33872 ft | 519 kts | 293° |
| 2026-04-24 13:43 | 8.83340 | 86.80960 | 33874 ft | 519 kts | 293° |
| 2026-04-24 13:43 | 8.86298 | 86.74359 | 33871 ft | 519 kts | 293° |
| 2026-04-24 13:44 | 8.89273 | 86.67717 | 33875 ft | 519 kts | 293° |
| 2026-04-24 13:44 | 8.92249 | 86.61069 | 33873 ft | 519 kts | 293° |
| 2026-04-24 13:45 | 8.95222 | 86.54424 | 33880 ft | 518 kts | 293° |
| 2026-04-24 13:45 | 8.98192 | 86.47783 | 33873 ft | 518 kts | 293° |
| 2026-04-24 13:46 | 9.01155 | 86.41152 | 33876 ft | 517 kts | 293° |
| 2026-04-24 13:46 | 9.03615 | 86.35644 | 33873 ft | 517 kts | 293° |
| 2026-04-24 13:47 | 9.06572 | 86.29020 | 33873 ft | 517 kts | 293° |
| 2026-04-24 13:47 | 9.09530 | 86.22391 | 33873 ft | 517 kts | 293° |
| 2026-04-24 13:48 | 9.12484 | 86.15765 | 33875 ft | 517 kts | 293° |
| 2026-04-24 13:48 | 9.15439 | 86.09135 | 33874 ft | 517 kts | 293° |
| 2026-04-24 13:49 | 9.18394 | 86.02501 | 33874 ft | 517 kts | 293° |
| 2026-04-24 13:49 | 9.21314 | 85.95940 | 33874 ft | 517 kts | 293° |
| 2026-04-24 13:50 | 9.24269 | 85.89296 | 33870 ft | 517 kts | 293° |
| 2026-04-24 13:50 | 9.27258 | 85.82673 | 33871 ft | 518 kts | 294° |
| 2026-04-24 13:51 | 9.30332 | 85.76080 | 33871 ft | 518 kts | 294° |
| 2026-04-24 13:51 | 9.33410 | 85.69493 | 33869 ft | 518 kts | 294° |
| 2026-04-24 13:52 | 9.36477 | 85.62894 | 33871 ft | 518 kts | 294° |
| 2026-04-24 13:52 | 9.39533 | 85.56295 | 33871 ft | 518 kts | 294° |
| 2026-04-24 13:53 | 9.42589 | 85.49687 | 33869 ft | 518 kts | 294° |
| 2026-04-24 13:53 | 9.45641 | 85.43087 | 33872 ft | 518 kts | 294° |
| 2026-04-24 13:54 | 9.48695 | 85.36480 | 33868 ft | 518 kts | 294° |
| 2026-04-24 13:54 | 9.51749 | 85.29870 | 33872 ft | 518 kts | 294° |
| 2026-04-24 13:55 | 9.54801 | 85.23259 | 33870 ft | 518 kts | 294° |
| 2026-04-24 13:55 | 9.57833 | 85.16689 | 33868 ft | 518 kts | 294° |
| 2026-04-24 13:56 | 9.60885 | 85.10072 | 33869 ft | 518 kts | 294° |
| 2026-04-24 13:56 | 9.63936 | 85.03453 | 33871 ft | 518 kts | 294° |
| 2026-04-24 13:57 | 9.66954 | 84.96901 | 33868 ft | 519 kts | 294° |
| 2026-04-24 13:57 | 9.70005 | 84.90273 | 33869 ft | 519 kts | 294° |
| 2026-04-24 13:58 | 9.73057 | 84.83640 | 33868 ft | 519 kts | 294° |
| 2026-04-24 13:58 | 9.76106 | 84.77008 | 33869 ft | 519 kts | 294° |
| 2026-04-24 13:59 | 9.79158 | 84.70366 | 33868 ft | 519 kts | 294° |
| 2026-04-24 13:59 | 9.82206 | 84.63729 | 33870 ft | 519 kts | 293° |
| 2026-04-24 14:00 | 9.85251 | 84.57096 | 33872 ft | 519 kts | 293° |
| 2026-04-24 14:00 | 9.88277 | 84.50497 | 33875 ft | 519 kts | 293° |
| 2026-04-24 14:01 | 9.91337 | 84.43823 | 33872 ft | 519 kts | 293° |
| 2026-04-24 14:01 | 9.94379 | 84.37183 | 33871 ft | 519 kts | 293° |
| 2026-04-24 14:02 | 9.97398 | 84.30588 | 33871 ft | 519 kts | 293° |
| 2026-04-24 14:02 | 10.00455 | 84.23907 | 33871 ft | 519 kts | 293° |
| 2026-04-24 14:03 | 10.03495 | 84.17260 | 33869 ft | 519 kts | 293° |
| 2026-04-24 14:03 | 10.06535 | 84.10608 | 33869 ft | 520 kts | 293° |
| 2026-04-24 14:04 | 10.09574 | 84.03954 | 33868 ft | 520 kts | 293° |
| 2026-04-24 14:04 | 10.12578 | 83.97372 | 33869 ft | 520 kts | 293° |
| 2026-04-24 14:05 | 10.15617 | 83.90709 | 33869 ft | 520 kts | 293° |
| 2026-04-24 14:05 | 10.18650 | 83.84055 | 33865 ft | 520 kts | 293° |
| 2026-04-24 14:06 | 10.21682 | 83.77400 | 33865 ft | 519 kts | 293° |
| 2026-04-24 14:06 | 10.24713 | 83.70743 | 33866 ft | 519 kts | 293° |
| 2026-04-24 14:07 | 10.27738 | 83.64093 | 33866 ft | 519 kts | 293° |
| 2026-04-24 14:07 | 10.30763 | 83.57439 | 33865 ft | 519 kts | 293° |
| 2026-04-24 14:08 | 10.33787 | 83.50785 | 33865 ft | 519 kts | 292° |
| 2026-04-24 14:08 | 10.36809 | 83.44131 | 33866 ft | 519 kts | 292° |
| 2026-04-24 14:09 | 10.39831 | 83.37470 | 33866 ft | 519 kts | 292° |
| 2026-04-24 14:09 | 10.42850 | 83.30813 | 33866 ft | 519 kts | 292° |
| 2026-04-24 14:10 | 10.45850 | 83.24195 | 33865 ft | 519 kts | 292° |
| 2026-04-24 14:10 | 10.48887 | 83.17488 | 33866 ft | 519 kts | 292° |
| 2026-04-24 14:11 | 10.51882 | 83.10871 | 33873 ft | 519 kts | 292° |
| 2026-04-24 14:12 | 10.56396 | 83.00892 | 33860 ft | 517 kts | 292° |
| 2026-04-24 14:12 | 10.59364 | 82.94320 | 33866 ft | 516 kts | 292° |
| 2026-04-24 14:13 | 10.62360 | 82.87686 | 33869 ft | 516 kts | 292° |
| 2026-04-24 14:13 | 10.65356 | 82.81061 | 33861 ft | 516 kts | 292° |
| 2026-04-24 14:14 | 10.68364 | 82.74438 | 33867 ft | 516 kts | 292° |
| 2026-04-24 14:14 | 10.72865 | 82.64520 | 33856 ft | 515 kts | 292° |
| 2026-04-24 14:15 | 10.75862 | 82.57904 | 33858 ft | 515 kts | 292° |
| 2026-04-24 14:15 | 10.78855 | 82.51292 | 33862 ft | 514 kts | 292° |
| 2026-04-24 14:16 | 10.81843 | 82.44685 | 33861 ft | 514 kts | 292° |
| 2026-04-24 14:17 | 10.86304 | 82.34814 | 33865 ft | 513 kts | 292° |
| 2026-04-24 14:17 | 10.90765 | 82.24934 | 33853 ft | 511 kts | 292° |
| 2026-04-24 14:18 | 10.93728 | 82.18366 | 33855 ft | 510 kts | 292° |
| 2026-04-24 14:18 | 10.96683 | 82.11810 | 33855 ft | 509 kts | 292° |
| 2026-04-24 14:19 | 10.99634 | 82.05258 | 33857 ft | 509 kts | 292° |
| 2026-04-24 14:19 | 11.02553 | 81.98776 | 33854 ft | 510 kts | 292° |
| 2026-04-24 14:20 | 11.05505 | 81.92214 | 33859 ft | 510 kts | 292° |
| 2026-04-24 14:20 | 11.08459 | 81.85642 | 33854 ft | 511 kts | 292° |
| 2026-04-24 14:21 | 11.11415 | 81.79065 | 33857 ft | 511 kts | 292° |
| 2026-04-24 14:21 | 11.14370 | 81.72483 | 33856 ft | 511 kts | 292° |
| 2026-04-24 14:22 | 11.17324 | 81.65898 | 33855 ft | 511 kts | 292° |
| 2026-04-24 14:23 | 11.21749 | 81.56028 | 33863 ft | 509 kts | 292° |
| 2026-04-24 14:23 | 11.24681 | 81.49481 | 33838 ft | 507 kts | 292° |
| 2026-04-24 14:24 | 11.27597 | 81.42968 | 33849 ft | 504 kts | 292° |
| 2026-04-24 14:24 | 11.30498 | 81.36480 | 33850 ft | 503 kts | 292° |
| 2026-04-24 14:25 | 11.32906 | 81.31094 | 33853 ft | 502 kts | 292° |
| 2026-04-24 14:25 | 11.36272 | 81.23557 | 33856 ft | 503 kts | 292° |
| 2026-04-24 14:26 | 11.39169 | 81.17065 | 33852 ft | 503 kts | 292° |
| 2026-04-24 14:26 | 11.42069 | 81.10565 | 33854 ft | 504 kts | 292° |
| 2026-04-24 14:27 | 11.44968 | 81.04060 | 33852 ft | 504 kts | 292° |
| 2026-04-24 14:27 | 11.47839 | 80.97615 | 33854 ft | 505 kts | 292° |
| 2026-04-24 14:28 | 11.50741 | 80.91095 | 33850 ft | 505 kts | 292° |
| 2026-04-24 14:28 | 11.53641 | 80.84574 | 33847 ft | 506 kts | 293° |
| 2026-04-24 14:29 | 11.56545 | 80.78041 | 33849 ft | 506 kts | 293° |
| 2026-04-24 14:29 | 11.59455 | 80.71490 | 33836 ft | 507 kts | 293° |
| 2026-04-24 14:30 | 11.61871 | 80.66046 | 33848 ft | 507 kts | 292° |
| 2026-04-24 14:30 | 11.65273 | 80.58376 | 33845 ft | 508 kts | 292° |
| 2026-04-24 14:31 | 11.68181 | 80.51816 | 33819 ft | 509 kts | 292° |
| 2026-04-24 14:31 | 11.71090 | 80.45246 | 33844 ft | 514 kts | 292° |
| 2026-04-24 14:32 | 11.74043 | 80.38572 | 33841 ft | 518 kts | 292° |
| 2026-04-24 14:32 | 11.77014 | 80.31854 | 33842 ft | 521 kts | 292° |
| 2026-04-24 14:33 | 11.79997 | 80.25103 | 33842 ft | 522 kts | 292° |
| 2026-04-24 14:33 | 11.82984 | 80.18339 | 33836 ft | 523 kts | 292° |
| 2026-04-24 14:34 | 11.85971 | 80.11571 | 33827 ft | 523 kts | 291° |
| 2026-04-24 14:34 | 11.88451 | 80.05921 | 33833 ft | 515 kts | 290° |
| 2026-04-24 14:35 | 11.91306 | 79.99385 | 33829 ft | 507 kts | 290° |
| 2026-04-24 14:35 | 11.94153 | 79.92848 | 33826 ft | 508 kts | 290° |
| 2026-04-24 14:36 | 11.97030 | 79.86247 | 33846 ft | 509 kts | 290° |
| 2026-04-24 14:36 | 11.99913 | 79.79633 | 33845 ft | 510 kts | 290° |
| 2026-04-24 14:37 | 12.02798 | 79.73009 | 33841 ft | 511 kts | 290° |
| 2026-04-24 14:37 | 12.05689 | 79.66367 | 33845 ft | 512 kts | 290° |
| 2026-04-24 14:38 | 12.08583 | 79.59714 | 33841 ft | 512 kts | 290° |
| 2026-04-24 14:38 | 12.11556 | 79.53093 | 33844 ft | 513 kts | 291° |
| 2026-04-24 14:39 | 12.14587 | 79.46500 | 33853 ft | 512 kts | 291° |
| 2026-04-24 14:39 | 12.17607 | 79.39912 | 33862 ft | 512 kts | 291° |
| 2026-04-24 14:40 | 12.20613 | 79.33311 | 33859 ft | 512 kts | 290° |
| 2026-04-24 14:40 | 12.23610 | 79.26716 | 33862 ft | 511 kts | 290° |
| 2026-04-24 14:41 | 12.26595 | 79.20141 | 33866 ft | 509 kts | 290° |
| 2026-04-24 14:41 | 12.29552 | 79.13622 | 33871 ft | 508 kts | 290° |
| 2026-04-24 14:42 | 12.32524 | 79.07066 | 33878 ft | 508 kts | 290° |
| 2026-04-24 14:42 | 12.35512 | 79.00474 | 33884 ft | 507 kts | 290° |
| 2026-04-24 14:43 | 12.38422 | 78.94047 | 33882 ft | 506 kts | 290° |
| 2026-04-24 14:43 | 12.41378 | 78.87513 | 33899 ft | 506 kts | 290° |
| 2026-04-24 14:44 | 12.44329 | 78.80983 | 33905 ft | 506 kts | 290° |
| 2026-04-24 14:44 | 12.47281 | 78.74446 | 33896 ft | 506 kts | 290° |
| 2026-04-24 14:45 | 12.50230 | 78.67913 | 33925 ft | 506 kts | 290° |
| 2026-04-24 14:45 | 12.53176 | 78.61385 | 33941 ft | 505 kts | 289° |
| 2026-04-24 14:46 | 12.56119 | 78.54856 | 33939 ft | 504 kts | 289° |
| 2026-04-24 14:46 | 12.59048 | 78.48352 | 33936 ft | 503 kts | 289° |
| 2026-04-24 14:47 | 12.61972 | 78.41855 | 33945 ft | 502 kts | 289° |
| 2026-04-24 14:47 | 12.64888 | 78.35369 | 33947 ft | 502 kts | 289° |
| 2026-04-24 14:48 | 12.67803 | 78.28878 | 33954 ft | 502 kts | 289° |
| 2026-04-24 14:48 | 12.70716 | 78.22390 | 33976 ft | 501 kts | 289° |
| 2026-04-24 14:49 | 12.73630 | 78.15896 | 33970 ft | 502 kts | 289° |
| 2026-04-24 14:49 | 12.76543 | 78.09398 | 33984 ft | 502 kts | 289° |
| 2026-04-24 14:50 | 12.79438 | 78.02934 | 33990 ft | 502 kts | 289° |
| 2026-04-24 14:50 | 12.82335 | 77.96461 | 33988 ft | 503 kts | 289° |
| 2026-04-24 14:51 | 12.85227 | 77.89994 | 34011 ft | 503 kts | 289° |
| 2026-04-24 14:51 | 12.88139 | 77.83479 | 34001 ft | 502 kts | 289° |
| 2026-04-24 14:52 | 12.91045 | 77.76969 | 34018 ft | 502 kts | 289° |
| 2026-04-24 14:52 | 12.93944 | 77.70471 | 34022 ft | 501 kts | 289° |
| 2026-04-24 14:53 | 12.97079 | 77.64070 | 34025 ft | 504 kts | 292° |
| 2026-04-24 14:53 | 13.00476 | 77.57784 | 34030 ft | 505 kts | 293° |
| 2026-04-24 14:54 | 13.03890 | 77.51493 | 34014 ft | 505 kts | 293° |
| 2026-04-24 14:54 | 13.07280 | 77.45190 | 33995 ft | 505 kts | 292° |
| 2026-04-24 14:55 | 13.10083 | 77.39948 | 33984 ft | 504 kts | 292° |
| 2026-04-24 14:55 | 13.14022 | 77.32572 | 33958 ft | 504 kts | 292° |
| 2026-04-24 14:56 | 13.17386 | 77.26268 | 33960 ft | 504 kts | 292° |
| 2026-04-24 14:56 | 13.20753 | 77.19958 | 33945 ft | 504 kts | 292° |
| 2026-04-24 14:57 | 13.24112 | 77.13657 | 33933 ft | 503 kts | 292° |
| 2026-04-24 14:57 | 13.27467 | 77.07359 | 33928 ft | 502 kts | 292° |
| 2026-04-24 14:58 | 13.30816 | 77.01070 | 33932 ft | 502 kts | 292° |
| 2026-04-24 14:58 | 13.34122 | 76.94855 | 33925 ft | 502 kts | 292° |
| 2026-04-24 14:59 | 13.37464 | 76.88567 | 33923 ft | 502 kts | 292° |
| 2026-04-24 14:59 | 13.40788 | 76.82308 | 33912 ft | 503 kts | 292° |
| 2026-04-24 15:00 | 13.44137 | 76.75998 | 33917 ft | 504 kts | 292° |
| 2026-04-24 15:00 | 13.47494 | 76.69668 | 33914 ft | 505 kts | 292° |
| 2026-04-24 15:01 | 13.50855 | 76.63326 | 33924 ft | 505 kts | 292° |
| 2026-04-24 15:01 | 13.54215 | 76.56984 | 33924 ft | 505 kts | 292° |
| 2026-04-24 15:02 | 13.57568 | 76.50650 | 33915 ft | 504 kts | 292° |
| 2026-04-24 15:02 | 13.60916 | 76.44318 | 33914 ft | 503 kts | 292° |
| 2026-04-24 15:03 | 13.63693 | 76.39064 | 33903 ft | 503 kts | 292° |
| 2026-04-24 15:03 | 13.67588 | 76.31686 | 33919 ft | 502 kts | 292° |
| 2026-04-24 15:04 | 13.70917 | 76.25377 | 33921 ft | 502 kts | 292° |
| 2026-04-24 15:04 | 13.74242 | 76.19067 | 33922 ft | 502 kts | 292° |
| 2026-04-24 15:05 | 13.77565 | 76.12759 | 33932 ft | 502 kts | 292° |
| 2026-04-24 15:05 | 13.80892 | 76.06437 | 33931 ft | 503 kts | 292° |
| 2026-04-24 15:06 | 13.84228 | 76.00095 | 33933 ft | 504 kts | 292° |
| 2026-04-24 15:06 | 13.87508 | 75.93854 | 33930 ft | 505 kts | 292° |
| 2026-04-24 15:07 | 13.90847 | 75.87497 | 33935 ft | 505 kts | 292° |
| 2026-04-24 15:07 | 13.94184 | 75.81140 | 33924 ft | 504 kts | 292° |
| 2026-04-24 15:08 | 13.97514 | 75.74784 | 33926 ft | 504 kts | 292° |
| 2026-04-24 15:08 | 14.00843 | 75.68429 | 33917 ft | 504 kts | 292° |
| 2026-04-24 15:09 | 14.04174 | 75.62067 | 33910 ft | 504 kts | 292° |
| 2026-04-24 15:09 | 14.07500 | 75.55710 | 33905 ft | 504 kts | 292° |
| 2026-04-24 15:10 | 14.10815 | 75.49357 | 33903 ft | 504 kts | 292° |
| 2026-04-24 15:10 | 14.14122 | 75.42998 | 33926 ft | 504 kts | 292° |
| 2026-04-24 15:11 | 14.17431 | 75.36631 | 33918 ft | 504 kts | 292° |
| 2026-04-24 15:11 | 14.20738 | 75.30263 | 33905 ft | 504 kts | 292° |
| 2026-04-24 15:12 | 14.24040 | 75.23900 | 33915 ft | 503 kts | 292° |
| 2026-04-24 15:12 | 14.28992 | 75.14348 | 33907 ft | 504 kts | 292° |
| 2026-04-24 15:13 | 14.32269 | 75.08021 | 33907 ft | 504 kts | 292° |
| 2026-04-24 15:13 | 14.35567 | 75.01647 | 33892 ft | 504 kts | 292° |
| 2026-04-24 15:14 | 14.38828 | 74.95339 | 33899 ft | 504 kts | 292° |
| 2026-04-24 15:14 | 14.42127 | 74.88954 | 33903 ft | 504 kts | 292° |
| 2026-04-24 15:15 | 14.45425 | 74.82565 | 33902 ft | 505 kts | 291° |
| 2026-04-24 15:15 | 14.48726 | 74.76165 | 33886 ft | 505 kts | 291° |
| 2026-04-24 15:16 | 14.52078 | 74.69795 | 33887 ft | 505 kts | 292° |
| 2026-04-24 15:16 | 14.55461 | 74.63439 | 33875 ft | 505 kts | 292° |
| 2026-04-24 15:17 | 14.58833 | 74.57085 | 33868 ft | 504 kts | 292° |
| 2026-04-24 15:17 | 14.62191 | 74.50731 | 33873 ft | 504 kts | 292° |
| 2026-04-24 15:18 | 14.65547 | 74.44374 | 33862 ft | 504 kts | 292° |
| 2026-04-24 15:18 | 14.68880 | 74.38055 | 33870 ft | 505 kts | 292° |
| 2026-04-24 15:19 | 14.72231 | 74.31694 | 33871 ft | 503 kts | 292° |
| 2026-04-24 15:19 | 14.75582 | 74.25333 | 33859 ft | 504 kts | 292° |
| 2026-04-24 15:20 | 14.78934 | 74.18963 | 33842 ft | 505 kts | 292° |
| 2026-04-24 15:20 | 14.82290 | 74.12578 | 33842 ft | 506 kts | 292° |
| 2026-04-24 15:21 | 14.85646 | 74.06188 | 33840 ft | 506 kts | 292° |
| 2026-04-24 15:21 | 14.88973 | 73.99850 | 33844 ft | 506 kts | 292° |
| 2026-04-24 15:22 | 14.92315 | 73.93472 | 33840 ft | 506 kts | 291° |
| 2026-04-24 15:23 | 14.97311 | 73.83866 | 33838 ft | 506 kts | 291° |
| 2026-04-24 15:23 | 15.02309 | 73.74265 | 33836 ft | 506 kts | 291° |
| 2026-04-24 15:25 | 15.10106 | 73.59335 | 33825 ft | 506 kts | 291° |
| 2026-04-24 15:26 | 15.18450 | 73.43308 | 33820 ft | 506 kts | 291° |
| 2026-04-24 15:27 | 15.28444 | 73.24066 | 33824 ft | 506 kts | 291° |
| 2026-04-24 15:29 | 15.38420 | 73.04809 | 33841 ft | 505 kts | 291° |
| 2026-04-24 15:31 | 15.49958 | 72.82472 | 33844 ft | 503 kts | 291° |
| 2026-04-24 15:33 | 15.63140 | 72.56867 | 33858 ft | 503 kts | 291° |
| 2026-04-24 15:34 | 15.71334 | 72.40909 | 33850 ft | 502 kts | 290° |
| 2026-04-24 15:35 | 15.79515 | 72.24936 | 33863 ft | 501 kts | 290° |
| 2026-04-24 15:36 | 15.82782 | 72.18550 | 33852 ft | 501 kts | 290° |
| 2026-04-24 15:36 | 15.87680 | 72.08961 | 33851 ft | 501 kts | 290° |
| 2026-04-24 15:37 | 15.90941 | 72.02571 | 33852 ft | 501 kts | 290° |
| 2026-04-24 15:37 | 15.94160 | 71.96256 | 33864 ft | 501 kts | 290° |
| 2026-04-24 15:38 | 15.97419 | 71.89858 | 33865 ft | 501 kts | 290° |
| 2026-04-24 15:38 | 16.00672 | 71.83464 | 33856 ft | 501 kts | 290° |
| 2026-04-24 15:39 | 16.03925 | 71.77067 | 33853 ft | 500 kts | 290° |
| 2026-04-24 15:39 | 16.07173 | 71.70670 | 33855 ft | 500 kts | 290° |
| 2026-04-24 15:40 | 16.10419 | 71.64277 | 33858 ft | 500 kts | 290° |
| 2026-04-24 15:40 | 16.13707 | 71.57955 | 33858 ft | 501 kts | 291° |
| 2026-04-24 15:41 | 16.17052 | 71.51602 | 33861 ft | 501 kts | 291° |
| 2026-04-24 15:41 | 16.20391 | 71.45238 | 33857 ft | 501 kts | 291° |
| 2026-04-24 15:42 | 16.23721 | 71.38864 | 33865 ft | 501 kts | 292° |
| 2026-04-24 15:42 | 16.27047 | 71.32486 | 33846 ft | 502 kts | 292° |
| 2026-04-24 15:43 | 16.30374 | 71.26101 | 33861 ft | 502 kts | 292° |
| 2026-04-24 15:43 | 16.33699 | 71.19715 | 33861 ft | 502 kts | 292° |
| 2026-04-24 15:44 | 16.37024 | 71.13324 | 33855 ft | 502 kts | 292° |
| 2026-04-24 15:44 | 16.40345 | 71.06935 | 33860 ft | 502 kts | 292° |
| 2026-04-24 15:45 | 16.43665 | 71.00542 | 33861 ft | 502 kts | 291° |
| 2026-04-24 15:45 | 16.46949 | 70.94211 | 33859 ft | 502 kts | 291° |
| 2026-04-24 15:46 | 16.50263 | 70.87815 | 33881 ft | 502 kts | 292° |
| 2026-04-24 15:46 | 16.53583 | 70.81411 | 33860 ft | 503 kts | 294° |
| 2026-04-24 15:47 | 16.56914 | 70.75055 | 33863 ft | 503 kts | 294° |
| 2026-04-24 15:47 | 16.60281 | 70.68648 | 33869 ft | 504 kts | 294° |
| 2026-04-24 15:48 | 16.63645 | 70.62231 | 33866 ft | 504 kts | 294° |
| 2026-04-24 15:48 | 16.67002 | 70.55813 | 33864 ft | 504 kts | 294° |
| 2026-04-24 15:49 | 16.70358 | 70.49387 | 33866 ft | 505 kts | 294° |
| 2026-04-24 15:49 | 16.73714 | 70.42957 | 33874 ft | 505 kts | 294° |
| 2026-04-24 15:50 | 16.77070 | 70.36522 | 33869 ft | 505 kts | 294° |
| 2026-04-24 15:50 | 16.80424 | 70.30083 | 33869 ft | 505 kts | 294° |
| 2026-04-24 15:51 | 16.83783 | 70.23631 | 33875 ft | 506 kts | 294° |
| 2026-04-24 15:51 | 16.87139 | 70.17174 | 33869 ft | 507 kts | 295° |
| 2026-04-24 15:52 | 16.90500 | 70.10705 | 33876 ft | 508 kts | 295° |
| 2026-04-24 15:52 | 16.93866 | 70.04219 | 33871 ft | 508 kts | 295° |
| 2026-04-24 15:53 | 16.97199 | 69.97791 | 33873 ft | 509 kts | 295° |
| 2026-04-24 15:53 | 17.00567 | 69.91289 | 33874 ft | 509 kts | 295° |
| 2026-04-24 15:54 | 17.03911 | 69.84827 | 33877 ft | 509 kts | 295° |
| 2026-04-24 15:54 | 17.07282 | 69.78303 | 33879 ft | 511 kts | 296° |
| 2026-04-24 15:55 | 17.10663 | 69.71757 | 33884 ft | 512 kts | 296° |
| 2026-04-24 15:55 | 17.14049 | 69.65194 | 33881 ft | 514 kts | 296° |
| 2026-04-24 15:56 | 17.17439 | 69.58615 | 33879 ft | 514 kts | 296° |
| 2026-04-24 15:56 | 17.20833 | 69.52034 | 33885 ft | 514 kts | 296° |
| 2026-04-24 15:57 | 17.24245 | 69.45451 | 33879 ft | 515 kts | 297° |
| 2026-04-24 15:57 | 17.27662 | 69.38863 | 33883 ft | 515 kts | 297° |
| 2026-04-24 15:58 | 17.31078 | 69.32265 | 33883 ft | 515 kts | 297° |
| 2026-04-24 15:58 | 17.34485 | 69.25669 | 33880 ft | 515 kts | 297° |
| 2026-04-24 15:59 | 17.37893 | 69.19066 | 33883 ft | 516 kts | 297° |
| 2026-04-24 15:59 | 17.41278 | 69.12498 | 33884 ft | 516 kts | 298° |
| 2026-04-24 16:00 | 17.44684 | 69.05887 | 33886 ft | 516 kts | 298° |
| 2026-04-24 16:00 | 17.48045 | 68.99356 | 33886 ft | 516 kts | 298° |
| 2026-04-24 16:01 | 17.51447 | 68.92739 | 33890 ft | 516 kts | 298° |
| 2026-04-24 16:01 | 17.54846 | 68.86121 | 33884 ft | 516 kts | 298° |
| 2026-04-24 16:02 | 17.58242 | 68.79500 | 33885 ft | 516 kts | 299° |
| 2026-04-24 16:02 | 17.61637 | 68.72876 | 33886 ft | 516 kts | 299° |
| 2026-04-24 16:03 | 17.65027 | 68.66253 | 33893 ft | 516 kts | 299° |
| 2026-04-24 16:03 | 17.68416 | 68.59627 | 33893 ft | 516 kts | 299° |
| 2026-04-24 16:04 | 17.71803 | 68.52998 | 33893 ft | 516 kts | 299° |
| 2026-04-24 16:04 | 17.75186 | 68.46370 | 33894 ft | 515 kts | 299° |
| 2026-04-24 16:05 | 17.80256 | 68.36423 | 33890 ft | 515 kts | 299° |
| 2026-04-24 16:06 | 17.85319 | 68.26474 | 33900 ft | 515 kts | 300° |
| 2026-04-24 16:07 | 17.90374 | 68.16524 | 33893 ft | 515 kts | 300° |
| 2026-04-24 16:07 | 17.95422 | 68.06575 | 33895 ft | 514 kts | 300° |
| 2026-04-24 16:08 | 18.00394 | 67.96758 | 33896 ft | 514 kts | 300° |
| 2026-04-24 16:09 | 18.05425 | 67.86808 | 33895 ft | 514 kts | 300° |
| 2026-04-24 16:09 | 18.08787 | 67.80179 | 33899 ft | 514 kts | 301° |
| 2026-04-24 16:11 | 18.17437 | 67.63747 | 33901 ft | 514 kts | 301° |
| 2026-04-24 16:11 | 18.20890 | 67.57165 | 33901 ft | 514 kts | 301° |
| 2026-04-24 16:12 | 18.25472 | 67.48399 | 33897 ft | 514 kts | 301° |
| 2026-04-24 16:13 | 18.31207 | 67.37409 | 33899 ft | 513 kts | 301° |
| 2026-04-24 16:14 | 18.37496 | 67.25340 | 33899 ft | 513 kts | 301° |
| 2026-04-24 16:14 | 18.42632 | 67.15465 | 33905 ft | 512 kts | 301° |
| 2026-04-24 16:15 | 18.47745 | 67.05619 | 33905 ft | 510 kts | 301° |
| 2026-04-24 16:16 | 18.52802 | 66.95866 | 33905 ft | 509 kts | 301° |
| 2026-04-24 16:17 | 18.61253 | 66.79534 | 33904 ft | 508 kts | 301° |
| 2026-04-24 16:18 | 18.67998 | 66.66465 | 33908 ft | 506 kts | 301° |
| 2026-04-24 16:19 | 18.73038 | 66.56683 | 33901 ft | 506 kts | 301° |
| 2026-04-24 16:20 | 18.78062 | 66.46916 | 33907 ft | 504 kts | 302° |
| 2026-04-24 16:20 | 18.83072 | 66.37160 | 33910 ft | 503 kts | 301° |
| 2026-04-24 16:21 | 18.88070 | 66.27413 | 33907 ft | 503 kts | 302° |
| 2026-04-24 16:22 | 18.91396 | 66.20917 | 33909 ft | 503 kts | 301° |
| 2026-04-24 16:22 | 18.96373 | 66.11183 | 33909 ft | 502 kts | 301° |
| 2026-04-24 16:23 | 18.99687 | 66.04695 | 33906 ft | 502 kts | 301° |
| 2026-04-24 16:24 | 19.04609 | 65.95043 | 33909 ft | 502 kts | 301° |
| 2026-04-24 16:24 | 19.07917 | 65.88549 | 33911 ft | 502 kts | 301° |
| 2026-04-24 16:25 | 19.11220 | 65.82055 | 33922 ft | 501 kts | 301° |
| 2026-04-24 16:25 | 19.14499 | 65.75602 | 33905 ft | 501 kts | 301° |
| 2026-04-24 16:26 | 19.19446 | 65.65854 | 33918 ft | 501 kts | 301° |
| 2026-04-24 16:27 | 19.24390 | 65.56097 | 33911 ft | 502 kts | 301° |
| 2026-04-24 16:27 | 19.27690 | 65.49576 | 33910 ft | 503 kts | 301° |
| 2026-04-24 16:28 | 19.30993 | 65.43041 | 33913 ft | 504 kts | 301° |
| 2026-04-24 16:28 | 19.35947 | 65.33223 | 33912 ft | 504 kts | 301° |
| 2026-04-24 16:29 | 19.39253 | 65.26665 | 33904 ft | 505 kts | 301° |
| 2026-04-24 16:30 | 19.45881 | 65.13489 | 33913 ft | 508 kts | 301° |
| 2026-04-24 16:30 | 19.49203 | 65.06873 | 33913 ft | 509 kts | 301° |
| 2026-04-24 16:31 | 19.52525 | 65.00253 | 33911 ft | 509 kts | 301° |
| 2026-04-24 16:31 | 19.55856 | 64.93724 | 33901 ft | 509 kts | 302° |
| 2026-04-24 16:32 | 19.59265 | 64.87138 | 33908 ft | 510 kts | 302° |
| 2026-04-24 16:32 | 19.62672 | 64.80542 | 33909 ft | 510 kts | 302° |
| 2026-04-24 16:33 | 19.66054 | 64.73966 | 33912 ft | 511 kts | 301° |
| 2026-04-24 16:33 | 19.69453 | 64.67339 | 33914 ft | 512 kts | 301° |
| 2026-04-24 16:34 | 19.72856 | 64.60698 | 33910 ft | 512 kts | 301° |
| 2026-04-24 16:34 | 19.76253 | 64.54060 | 33909 ft | 512 kts | 301° |
| 2026-04-24 16:35 | 19.79648 | 64.47421 | 33910 ft | 512 kts | 301° |
| 2026-04-24 16:35 | 19.82825 | 64.40654 | 33910 ft | 514 kts | 294° |
| 2026-04-24 16:36 | 19.84949 | 64.33371 | 33907 ft | 517 kts | 289° |
| 2026-04-24 16:36 | 19.86888 | 64.26010 | 33915 ft | 518 kts | 289° |
| 2026-04-24 16:37 | 19.88861 | 64.18643 | 33913 ft | 519 kts | 289° |
| 2026-04-24 16:37 | 19.90864 | 64.11274 | 33912 ft | 519 kts | 289° |
| 2026-04-24 16:38 | 19.92877 | 64.03896 | 33907 ft | 520 kts | 289° |
| 2026-04-24 16:38 | 19.94862 | 63.96605 | 33913 ft | 520 kts | 289° |
| 2026-04-24 16:39 | 19.96852 | 63.89272 | 33912 ft | 520 kts | 289° |
| 2026-04-24 16:39 | 19.98852 | 63.81887 | 33912 ft | 520 kts | 289° |
| 2026-04-24 16:40 | 20.00845 | 63.74512 | 33916 ft | 520 kts | 289° |
| 2026-04-24 16:40 | 20.02839 | 63.67125 | 33913 ft | 520 kts | 289° |
| 2026-04-24 16:41 | 20.04829 | 63.59736 | 33911 ft | 520 kts | 289° |
| 2026-04-24 16:41 | 20.06815 | 63.52350 | 33913 ft | 520 kts | 289° |
| 2026-04-24 16:42 | 20.08799 | 63.44958 | 33913 ft | 520 kts | 289° |
| 2026-04-24 16:42 | 20.10780 | 63.37564 | 33910 ft | 519 kts | 289° |
| 2026-04-24 16:43 | 20.12756 | 63.30175 | 33911 ft | 519 kts | 289° |
| 2026-04-24 16:43 | 20.14730 | 63.22780 | 33917 ft | 519 kts | 289° |
| 2026-04-24 16:44 | 20.16534 | 63.16010 | 33910 ft | 519 kts | 289° |
| 2026-04-24 16:44 | 20.18100 | 63.10124 | 33906 ft | 519 kts | 289° |
| 2026-04-24 16:45 | 20.19699 | 63.04104 | 33913 ft | 519 kts | 289° |
| 2026-04-24 16:45 | 20.21624 | 62.96850 | 33912 ft | 519 kts | 289° |
| 2026-04-24 16:46 | 20.23588 | 62.89404 | 33912 ft | 519 kts | 289° |
| 2026-04-24 16:46 | 20.25536 | 62.82010 | 33902 ft | 518 kts | 289° |
| 2026-04-24 16:47 | 20.27467 | 62.74683 | 33915 ft | 517 kts | 289° |
| 2026-04-24 16:47 | 20.29407 | 62.67319 | 33913 ft | 516 kts | 289° |
| 2026-04-24 16:48 | 20.31342 | 62.59959 | 33916 ft | 515 kts | 289° |
| 2026-04-24 16:48 | 20.33283 | 62.52561 | 33913 ft | 515 kts | 289° |
| 2026-04-24 16:49 | 20.35195 | 62.45262 | 33914 ft | 514 kts | 289° |
| 2026-04-24 16:49 | 20.37114 | 62.37921 | 33908 ft | 514 kts | 289° |
| 2026-04-24 16:50 | 20.38838 | 62.31315 | 33909 ft | 514 kts | 289° |
| 2026-04-24 16:50 | 20.40750 | 62.23977 | 33910 ft | 514 kts | 289° |
| 2026-04-24 16:51 | 20.42699 | 62.16747 | 33975 ft | 514 kts | 289° |
| 2026-04-24 16:51 | 20.43725 | 62.13119 | 34439 ft | 507 kts | 289° |
| 2026-04-24 16:51 | 20.44736 | 62.09568 | 35115 ft | 495 kts | 290° |
| 2026-04-24 16:52 | 20.45723 | 62.06092 | 35740 ft | 485 kts | 290° |
| 2026-04-24 16:52 | 20.46693 | 62.02665 | 35923 ft | 483 kts | 290° |
| 2026-04-24 16:52 | 20.48627 | 61.95809 | 35917 ft | 493 kts | 290° |
| 2026-04-24 16:53 | 20.50604 | 61.88746 | 35911 ft | 499 kts | 290° |
| 2026-04-24 16:53 | 20.52580 | 61.81649 | 35910 ft | 499 kts | 289° |
| 2026-04-24 16:54 | 20.54553 | 61.74551 | 35908 ft | 498 kts | 289° |
| 2026-04-24 16:54 | 20.56518 | 61.67472 | 35908 ft | 497 kts | 289° |
| 2026-04-24 16:55 | 20.58472 | 61.60423 | 35911 ft | 495 kts | 289° |
| 2026-04-24 16:55 | 20.60407 | 61.53437 | 35910 ft | 494 kts | 289° |
| 2026-04-24 16:56 | 20.62346 | 61.46419 | 35910 ft | 493 kts | 289° |
| 2026-04-24 16:56 | 20.64282 | 61.39405 | 35909 ft | 492 kts | 289° |
| 2026-04-24 16:57 | 20.66213 | 61.32394 | 35907 ft | 492 kts | 289° |
| 2026-04-24 16:57 | 20.68141 | 61.25382 | 35911 ft | 492 kts | 289° |
| 2026-04-24 16:58 | 20.70065 | 61.18375 | 35909 ft | 492 kts | 289° |
| 2026-04-24 16:58 | 20.71984 | 61.11370 | 35910 ft | 491 kts | 289° |
| 2026-04-24 16:59 | 20.73901 | 61.04362 | 35910 ft | 491 kts | 289° |
| 2026-04-24 17:00 | 20.76743 | 60.93950 | 35910 ft | 490 kts | 289° |
| 2026-04-24 17:00 | 20.79597 | 60.83465 | 35910 ft | 489 kts | 289° |
| 2026-04-24 17:01 | 20.82441 | 60.72994 | 35904 ft | 489 kts | 289° |
| 2026-04-24 17:02 | 20.84955 | 60.63712 | 35905 ft | 488 kts | 289° |
| 2026-04-24 17:02 | 20.86837 | 60.56747 | 35906 ft | 487 kts | 289° |
| 2026-04-24 17:03 | 20.89653 | 60.46307 | 35904 ft | 487 kts | 289° |
| 2026-04-24 17:04 | 20.91526 | 60.39350 | 35905 ft | 486 kts | 289° |
| 2026-04-24 17:04 | 20.94325 | 60.28926 | 35903 ft | 486 kts | 289° |
| 2026-04-24 17:05 | 20.96184 | 60.21987 | 35902 ft | 485 kts | 289° |
| 2026-04-24 17:06 | 20.98966 | 60.11582 | 35901 ft | 484 kts | 289° |
| 2026-04-24 17:06 | 21.01731 | 60.01212 | 35899 ft | 483 kts | 289° |
| 2026-04-24 17:07 | 21.03550 | 59.94376 | 35899 ft | 483 kts | 289° |
| 2026-04-24 17:08 | 21.07240 | 59.80566 | 35900 ft | 482 kts | 289° |
| 2026-04-24 17:08 | 21.09110 | 59.73668 | 35899 ft | 482 kts | 289° |
| 2026-04-24 17:09 | 21.12823 | 59.59912 | 35890 ft | 482 kts | 289° |
| 2026-04-24 17:10 | 21.16529 | 59.46098 | 35893 ft | 482 kts | 288° |
| 2026-04-24 17:12 | 21.23910 | 59.18446 | 35892 ft | 482 kts | 288° |
| 2026-04-24 18:54 | 22.86984 | 45.74777 | 33903 ft | 446 kts | 273° |
| 2026-04-24 18:55 | 22.87687 | 45.64744 | 33909 ft | 444 kts | 273° |
| 2026-04-24 18:56 | 22.88150 | 45.58075 | 33901 ft | 443 kts | 273° |
| 2026-04-24 18:56 | 22.88610 | 45.51414 | 33912 ft | 442 kts | 273° |
| 2026-04-24 18:57 | 22.89066 | 45.44768 | 33912 ft | 442 kts | 273° |
| 2026-04-24 18:57 | 22.89519 | 45.38132 | 33919 ft | 441 kts | 273° |
| 2026-04-24 18:58 | 22.89968 | 45.31510 | 33922 ft | 440 kts | 273° |
| 2026-04-24 18:58 | 22.90413 | 45.24911 | 33917 ft | 438 kts | 273° |
| 2026-04-24 18:59 | 22.90853 | 45.18330 | 33915 ft | 437 kts | 273° |
| 2026-04-24 18:59 | 22.91288 | 45.11811 | 33922 ft | 436 kts | 272° |
| 2026-04-24 19:00 | 22.91722 | 45.05251 | 33926 ft | 436 kts | 272° |
| 2026-04-24 19:00 | 22.92150 | 44.98764 | 33914 ft | 437 kts | 272° |
| 2026-04-24 19:01 | 22.92581 | 44.92173 | 33925 ft | 439 kts | 272° |
| 2026-04-24 19:01 | 22.93013 | 44.85539 | 33925 ft | 442 kts | 272° |
| 2026-04-24 19:02 | 22.93375 | 44.79948 | 33933 ft | 444 kts | 272° |
| 2026-04-24 19:02 | 22.93877 | 44.72160 | 33928 ft | 446 kts | 272° |
| 2026-04-24 19:03 | 22.94803 | 44.65500 | 33932 ft | 448 kts | 280° |
| 2026-04-24 19:03 | 22.96631 | 44.59027 | 33926 ft | 449 kts | 285° |
| 2026-04-24 19:04 | 22.98651 | 44.52615 | 33926 ft | 449 kts | 285° |
| 2026-04-24 19:04 | 23.00654 | 44.46207 | 33927 ft | 448 kts | 285° |
| 2026-04-24 19:05 | 23.02637 | 44.39794 | 33923 ft | 448 kts | 285° |
| 2026-04-24 19:05 | 23.04610 | 44.33378 | 33926 ft | 448 kts | 285° |
| 2026-04-24 19:06 | 23.06580 | 44.26962 | 33928 ft | 448 kts | 285° |
| 2026-04-24 19:06 | 23.08548 | 44.20544 | 33933 ft | 448 kts | 285° |
| 2026-04-24 19:07 | 23.10516 | 44.14113 | 33930 ft | 449 kts | 285° |
| 2026-04-24 19:07 | 23.12153 | 44.08760 | 33936 ft | 449 kts | 285° |
| 2026-04-24 19:08 | 23.14451 | 44.01231 | 33946 ft | 449 kts | 284° |
| 2026-04-24 19:08 | 23.16392 | 43.94859 | 33954 ft | 449 kts | 284° |
| 2026-04-24 19:09 | 23.18352 | 43.88417 | 33957 ft | 449 kts | 284° |
| 2026-04-24 19:09 | 23.20307 | 43.81979 | 33975 ft | 448 kts | 284° |
| 2026-04-24 19:10 | 23.22258 | 43.75541 | 33971 ft | 448 kts | 284° |
| 2026-04-24 19:10 | 23.24207 | 43.69100 | 33981 ft | 449 kts | 284° |
| 2026-04-24 19:11 | 23.26142 | 43.62697 | 34001 ft | 449 kts | 284° |
| 2026-04-24 19:11 | 23.28090 | 43.56241 | 34004 ft | 450 kts | 284° |
| 2026-04-24 19:12 | 23.30048 | 43.49731 | 34012 ft | 450 kts | 284° |
| 2026-04-24 19:12 | 23.31978 | 43.43298 | 34011 ft | 450 kts | 284° |
| 2026-04-24 19:13 | 23.33605 | 43.37871 | 34017 ft | 451 kts | 283° |
| 2026-04-24 19:13 | 23.35861 | 43.30331 | 34027 ft | 450 kts | 283° |
| 2026-04-24 19:14 | 23.37795 | 43.23852 | 34024 ft | 450 kts | 283° |
| 2026-04-24 19:14 | 23.39729 | 43.17363 | 34025 ft | 451 kts | 283° |
| 2026-04-24 19:15 | 23.41661 | 43.10867 | 34032 ft | 451 kts | 283° |
| 2026-04-24 19:15 | 23.43584 | 43.04357 | 34035 ft | 452 kts | 283° |
| 2026-04-24 19:16 | 23.46450 | 42.94634 | 34037 ft | 453 kts | 283° |
| 2026-04-24 19:16 | 23.48375 | 42.88092 | 34028 ft | 454 kts | 283° |
| 2026-04-24 19:17 | 23.50298 | 42.81546 | 34035 ft | 454 kts | 283° |
| 2026-04-24 19:17 | 23.52220 | 42.74995 | 34023 ft | 454 kts | 283° |
| 2026-04-24 19:18 | 23.53837 | 42.69510 | 34027 ft | 454 kts | 283° |
| 2026-04-24 19:18 | 23.55771 | 42.62970 | 34028 ft | 453 kts | 283° |
| 2026-04-24 19:19 | 23.57700 | 42.56428 | 34024 ft | 452 kts | 283° |
| 2026-04-24 19:19 | 23.59619 | 42.49906 | 34010 ft | 451 kts | 283° |
| 2026-04-24 19:20 | 23.61509 | 42.43464 | 34016 ft | 449 kts | 282° |
| 2026-04-24 19:20 | 23.63408 | 42.36984 | 34027 ft | 448 kts | 282° |
| 2026-04-24 19:21 | 23.65300 | 42.30515 | 34013 ft | 447 kts | 282° |
| 2026-04-24 19:21 | 23.67175 | 42.24061 | 34011 ft | 446 kts | 282° |
| 2026-04-24 19:22 | 23.69029 | 42.17616 | 34027 ft | 446 kts | 282° |
| 2026-04-24 19:22 | 23.70885 | 42.11155 | 34021 ft | 446 kts | 282° |
| 2026-04-24 19:23 | 23.72743 | 42.04684 | 34011 ft | 447 kts | 282° |
| 2026-04-24 19:23 | 23.74579 | 41.98283 | 34019 ft | 447 kts | 282° |
| 2026-04-24 19:24 | 23.76461 | 41.91800 | 34005 ft | 448 kts | 282° |
| 2026-04-24 19:24 | 23.78350 | 41.85312 | 34000 ft | 449 kts | 282° |
| 2026-04-24 19:25 | 23.80235 | 41.78812 | 34010 ft | 449 kts | 282° |
| 2026-04-24 19:25 | 23.82114 | 41.72297 | 33999 ft | 450 kts | 281° |
| 2026-04-24 19:26 | 23.83986 | 41.65774 | 34004 ft | 450 kts | 281° |
| 2026-04-24 19:26 | 23.85859 | 41.59241 | 33996 ft | 451 kts | 281° |
| 2026-04-24 19:27 | 23.87730 | 41.52701 | 34002 ft | 451 kts | 281° |
| 2026-04-24 19:27 | 23.89598 | 41.46154 | 33993 ft | 451 kts | 281° |
| 2026-04-24 19:28 | 23.91460 | 41.39613 | 33997 ft | 451 kts | 281° |
| 2026-04-24 19:28 | 23.93320 | 41.33070 | 34002 ft | 450 kts | 281° |
| 2026-04-24 19:29 | 23.95140 | 41.26680 | 33298 ft | 436 kts | 281° |
| 2026-04-24 19:29 | 23.96023 | 41.23577 | 32733 ft | 416 kts | 281° |
| 2026-04-24 19:29 | 23.96862 | 41.20639 | 32189 ft | 393 kts | 280° |
| 2026-04-24 19:30 | 23.97655 | 41.17850 | 31707 ft | 379 kts | 280° |
| 2026-04-24 19:30 | 23.98426 | 41.15101 | 31245 ft | 377 kts | 279° |
| 2026-04-24 19:30 | 23.99193 | 41.12358 | 30797 ft | 376 kts | 279° |
| 2026-04-24 19:30 | 23.99958 | 41.09625 | 30317 ft | 376 kts | 279° |
| 2026-04-24 19:31 | 24.00724 | 41.06895 | 29796 ft | 376 kts | 279° |
| 2026-04-24 19:31 | 24.01491 | 41.04168 | 29265 ft | 375 kts | 279° |
| 2026-04-24 19:31 | 24.02256 | 41.01450 | 28768 ft | 373 kts | 279° |
| 2026-04-24 19:31 | 24.03002 | 40.98801 | 28284 ft | 372 kts | 279° |
| 2026-04-24 19:32 | 24.03760 | 40.96104 | 27801 ft | 370 kts | 279° |
| 2026-04-24 19:32 | 24.04516 | 40.93415 | 27335 ft | 369 kts | 280° |
| 2026-04-24 19:32 | 24.05266 | 40.90738 | 26879 ft | 368 kts | 280° |
| 2026-04-24 19:32 | 24.06014 | 40.88070 | 26412 ft | 366 kts | 280° |
| 2026-04-24 19:33 | 24.06734 | 40.85496 | 25975 ft | 365 kts | 280° |
| 2026-04-24 19:33 | 24.07477 | 40.82842 | 25498 ft | 364 kts | 280° |
| 2026-04-24 19:33 | 24.08216 | 40.80193 | 25036 ft | 364 kts | 280° |
| 2026-04-24 19:33 | 24.08956 | 40.77544 | 24561 ft | 363 kts | 281° |
| 2026-04-24 19:34 | 24.09693 | 40.74903 | 24110 ft | 363 kts | 281° |
| 2026-04-24 19:34 | 24.10429 | 40.72262 | 23654 ft | 363 kts | 281° |
| 2026-04-24 19:34 | 24.11164 | 40.69623 | 23139 ft | 362 kts | 281° |
| 2026-04-24 19:34 | 24.11898 | 40.66990 | 22656 ft | 361 kts | 281° |
| 2026-04-24 19:35 | 24.12628 | 40.64370 | 22178 ft | 359 kts | 281° |
| 2026-04-24 19:35 | 24.13344 | 40.61797 | 21733 ft | 357 kts | 281° |
| 2026-04-24 19:35 | 24.14064 | 40.59205 | 21294 ft | 355 kts | 281° |
| 2026-04-24 19:35 | 24.14781 | 40.56622 | 20852 ft | 354 kts | 281° |
| 2026-04-24 19:36 | 24.15483 | 40.54109 | 20379 ft | 334 kts | 281° |
| 2026-04-24 19:36 | 24.16143 | 40.51725 | 20012 ft | 325 kts | 279° |
| 2026-04-24 19:36 | 24.16598 | 40.49342 | 19798 ft | 317 kts | 273° |
| 2026-04-24 19:36 | 24.17143 | 40.46978 | 19516 ft | 332 kts | 288° |
| 2026-04-24 19:37 | 24.18438 | 40.44803 | 19286 ft | 351 kts | 304° |
| 2026-04-24 19:37 | 24.20235 | 40.42945 | 18991 ft | 357 kts | 311° |
| 2026-04-24 19:37 | 24.22127 | 40.41172 | 18718 ft | 358 kts | 311° |
| 2026-04-24 19:37 | 24.24029 | 40.39410 | 18434 ft | 357 kts | 312° |
| 2026-04-24 19:38 | 24.25915 | 40.37666 | 18139 ft | 353 kts | 311° |
| 2026-04-24 19:38 | 24.27778 | 40.35936 | 17837 ft | 349 kts | 311° |
| 2026-04-24 19:38 | 24.29615 | 40.34223 | 17551 ft | 344 kts | 311° |
| 2026-04-24 19:38 | 24.31419 | 40.32532 | 17281 ft | 340 kts | 311° |
| 2026-04-24 19:39 | 24.33203 | 40.30854 | 17018 ft | 337 kts | 311° |
| 2026-04-24 19:39 | 24.34974 | 40.29184 | 16760 ft | 335 kts | 311° |
| 2026-04-24 19:39 | 24.36741 | 40.27513 | 16511 ft | 337 kts | 311° |
| 2026-04-24 19:39 | 24.38524 | 40.25825 | 16256 ft | 339 kts | 312° |
| 2026-04-24 19:40 | 24.40313 | 40.24132 | 15998 ft | 339 kts | 312° |
| 2026-04-24 19:40 | 24.42096 | 40.22446 | 15731 ft | 338 kts | 312° |
| 2026-04-24 19:40 | 24.43875 | 40.20763 | 15470 ft | 337 kts | 312° |
| 2026-04-24 19:40 | 24.45649 | 40.19085 | 15210 ft | 334 kts | 312° |
| 2026-04-24 19:41 | 24.47366 | 40.17468 | 14943 ft | 323 kts | 312° |
| 2026-04-24 19:41 | 24.49084 | 40.15837 | 14709 ft | 330 kts | 312° |
| 2026-04-24 19:41 | 24.50825 | 40.14182 | 14469 ft | 332 kts | 312° |
| 2026-04-24 19:41 | 24.52567 | 40.12529 | 14234 ft | 330 kts | 312° |
| 2026-04-24 19:42 | 24.54301 | 40.10885 | 13991 ft | 329 kts | 313° |
| 2026-04-24 19:42 | 24.56029 | 40.09246 | 13740 ft | 327 kts | 313° |
| 2026-04-24 19:42 | 24.57751 | 40.07612 | 13468 ft | 326 kts | 313° |
| 2026-04-24 19:42 | 24.59460 | 40.05991 | 13206 ft | 324 kts | 313° |
| 2026-04-24 19:43 | 24.61161 | 40.04375 | 12949 ft | 322 kts | 313° |
| 2026-04-24 19:43 | 24.62849 | 40.02770 | 12710 ft | 320 kts | 313° |
| 2026-04-24 19:43 | 24.64534 | 40.01170 | 12460 ft | 319 kts | 313° |
| 2026-04-24 19:43 | 24.66167 | 39.99616 | 12221 ft | 318 kts | 313° |
| 2026-04-24 19:44 | 24.67837 | 39.98027 | 11970 ft | 317 kts | 314° |
| 2026-04-24 19:44 | 24.69503 | 39.96443 | 11747 ft | 316 kts | 314° |
| 2026-04-24 19:44 | 24.71163 | 39.94863 | 11496 ft | 316 kts | 314° |
| 2026-04-24 19:44 | 24.72825 | 39.93280 | 11243 ft | 316 kts | 314° |
| 2026-04-24 19:45 | 24.74482 | 39.91700 | 11003 ft | 315 kts | 315° |
| 2026-04-24 19:45 | 24.76138 | 39.90121 | 10765 ft | 315 kts | 315° |
| 2026-04-24 19:45 | 24.77787 | 39.88548 | 10552 ft | 312 kts | 315° |
| 2026-04-24 19:45 | 24.79418 | 39.86994 | 10286 ft | 308 kts | 316° |
| 2026-04-24 19:46 | 24.81006 | 39.85482 | 10009 ft | 292 kts | 315° |
| 2026-04-24 19:46 | 24.82503 | 39.84058 | 9811 ft | 283 kts | 316° |
| 2026-04-24 19:46 | 24.83973 | 39.82651 | 9594 ft | 285 kts | 316° |
| 2026-04-24 19:46 | 24.85471 | 39.81217 | 9372 ft | 285 kts | 316° |
| 2026-04-24 19:47 | 24.86962 | 39.79792 | 9146 ft | 283 kts | 315° |
| 2026-04-24 19:47 | 24.88445 | 39.78375 | 8919 ft | 281 kts | 316° |
| 2026-04-24 19:47 | 24.89913 | 39.76971 | 8715 ft | 279 kts | 316° |
| 2026-04-24 19:47 | 24.91370 | 39.75570 | 8474 ft | 275 kts | 313° |
| 2026-04-24 19:48 | 24.92414 | 39.73867 | 8262 ft | 270 kts | 285° |
| 2026-04-24 19:48 | 24.92633 | 39.71846 | 8061 ft | 264 kts | 261° |
| 2026-04-24 19:48 | 24.91903 | 39.67981 | 7648 ft | 253 kts | 255° |
| 2026-04-24 19:49 | 24.90423 | 39.64720 | 7256 ft | 240 kts | 210° |
| 2026-04-24 19:49 | 24.87339 | 39.64229 | 7011 ft | 217 kts | 175° |
| 2026-04-24 19:50 | 24.83078 | 39.64899 | 6915 ft | 198 kts | 168° |
| 2026-04-24 19:50 | 24.81723 | 39.65183 | 6673 ft | 198 kts | 167° |
| 2026-04-24 19:51 | 24.79134 | 39.65736 | 6190 ft | 179 kts | 167° |
| 2026-04-24 19:51 | 24.77942 | 39.65990 | 6010 ft | 171 kts | 166° |
| 2026-04-24 19:52 | 24.75713 | 39.66470 | 5575 ft | 151 kts | 166° |
| 2026-04-24 19:52 | 24.74673 | 39.66693 | 5382 ft | 153 kts | 167° |
| 2026-04-24 19:52 | 24.73632 | 39.66915 | 5179 ft | 151 kts | 166° |
| 2026-04-24 19:52 | 24.72603 | 39.67135 | 5006 ft | 151 kts | 165° |
| 2026-04-24 19:53 | 24.71551 | 39.67360 | 4811 ft | 153 kts | 165° |
| 2026-04-24 19:53 | 24.70506 | 39.67585 | 4612 ft | 154 kts | 165° |
| 2026-04-24 19:53 | 24.68372 | 39.68042 | 4218 ft | 157 kts | 165° |
| 2026-04-24 19:54 | 24.67318 | 39.68265 | 4015 ft | 152 kts | 166° |
| 2026-04-24 19:54 | 24.66282 | 39.68487 | 3820 ft | 153 kts | 164° |
| 2026-04-24 19:54 | 24.65248 | 39.68707 | 3628 ft | 149 kts | 164° |
| 2026-04-24 19:54 | 24.64244 | 39.68922 | 3432 ft | 145 kts | 164° |
| 2026-04-24 19:55 | 24.63908 | 39.68995 | 3376 ft | 146 kts | 164° |
| 2026-04-24 19:55 | 24.62236 | 39.69353 | 3085 ft | 149 kts | 164° |
| 2026-04-24 19:55 | 24.61232 | 39.69568 | 2866 ft | 145 kts | 167° |
| 2026-04-24 19:55 | 24.60232 | 39.69785 | 2733 ft | 150 kts | 167° |
| 2026-04-24 19:56 | 24.59157 | 39.70028 | 2536 ft | 162 kts | 169° |
| 2026-04-24 19:56 | 24.58073 | 39.70240 | 2273 ft | 153 kts | 171° |
| 2026-04-24 19:56 | 24.57066 | 39.70445 | 2127 ft | 137 kts | 168° |
| 2026-04-24 19:56 | 24.56325 | 39.70608 | 2118 ft | 72 kts | 169° |
| 2026-04-24 19:57 | 24.55921 | 39.70701 | 2108 ft | 46 kts | 170° |
| 2026-04-24 19:57 | 24.55627 | 39.70761 | 2100 ft | 40 kts | 169° |
| 2026-04-24 19:57 | 24.55460 | 39.70799 | 2098 ft | 16 kts | 164° |
| 2026-04-24 19:57 | 24.55359 | 39.70846 | 2096 ft | 16 kts | 150° |
| 2026-04-24 19:58 | 24.55273 | 39.70911 | 2095 ft | 13 kts | 142° |
| 2026-04-24 19:58 | 24.55221 | 39.70973 | 2095 ft | 8 kts | 111° |
| 2026-04-24 19:58 | 24.55216 | 39.71022 | 2096 ft | 6 kts | 82° |
| 2026-04-24 19:58 | 24.55217 | 39.71029 | 2096 ft | 2 kts | 79° |
| 2026-04-24 19:59 | 24.55220 | 39.71047 | 2096 ft | 4 kts | 79° |
| 2026-04-24 19:59 | 24.55230 | 39.71102 | 2097 ft | 11 kts | 79° |
| 2026-04-24 19:59 | 24.55247 | 39.71183 | 2098 ft | 10 kts | 64° |
| 2026-04-24 19:59 | 24.55301 | 39.71211 | 2099 ft | 10 kts | 3° |
| 2026-04-24 20:00 | 24.55379 | 39.71205 | 2101 ft | 11 kts | 348° |
| 2026-04-24 20:00 | 24.55440 | 39.71194 | 2102 ft | 5 kts | 11° |
| 2026-04-24 20:00 | 24.55460 | 39.71222 | 2102 ft | 5 kts | 79° |
| 2026-04-24 20:00 | 24.55465 | 39.71257 | 2103 ft | 4 kts | 80° |
| 2026-04-24 20:01 | 24.55470 | 39.71288 | 2103 ft | 4 kts | 80° |
| 2026-04-24 20:01 | 24.55471 | 39.71293 | 2103 ft | 0 kts | 80° |